createdAt,value
2019-03-18T00:01:09.806Z,0.80
2019-03-18T00:03:39.748Z,0.70
2019-03-18T00:06:09.736Z,0.90
2019-03-18T00:08:39.650Z,0.90
2019-03-18T00:11:09.737Z,0.90
2019-03-18T00:13:39.703Z,0.90
2019-03-18T00:16:09.807Z,0.70
2019-03-18T00:18:39.834Z,0.70
2019-03-18T00:21:09.934Z,1.00
2019-03-18T00:23:41.052Z,0.90
2019-03-18T00:26:11.097Z,0.77
2019-03-18T00:28:40.946Z,0.83
2019-03-18T00:31:10.882Z,0.90
2019-03-18T00:33:40.794Z,1.00
2019-03-18T00:36:10.737Z,0.70
2019-03-18T00:38:40.777Z,0.90
2019-03-18T00:41:10.616Z,0.80
2019-03-18T00:43:40.536Z,0.80
2019-03-18T00:46:10.467Z,0.93
2019-03-18T00:48:40.524Z,0.90
2019-03-18T00:51:10.515Z,0.87
2019-03-18T00:53:40.543Z,0.73
2019-03-18T00:56:10.515Z,0.70
2019-03-18T00:58:40.769Z,1.10
2019-03-18T01:01:10.889Z,1.00
2019-03-18T01:03:40.929Z,1.00
2019-03-18T01:06:11.014Z,0.90
2019-03-18T01:08:41.110Z,0.90
2019-03-18T01:11:11.018Z,0.90
2019-03-18T01:13:40.958Z,1.00
2019-03-18T01:16:10.947Z,1.10
2019-03-18T01:18:40.969Z,1.10
2019-03-18T01:21:10.949Z,0.90
2019-03-18T01:23:40.898Z,1.00
2019-03-18T01:26:10.879Z,0.90
2019-03-18T01:28:40.876Z,0.90
2019-03-18T01:31:10.810Z,0.90
2019-03-18T01:33:40.786Z,1.10
2019-03-18T01:36:10.700Z,1.00
2019-03-18T01:38:42.104Z,1.03
2019-03-18T01:41:11.927Z,0.90
2019-03-18T01:43:41.947Z,1.00
2019-03-18T01:46:11.987Z,1.20
2019-03-18T01:48:41.950Z,1.03
2019-03-18T01:51:11.910Z,1.20
2019-03-18T01:53:41.891Z,1.10
2019-03-18T01:56:11.806Z,0.90
2019-03-18T01:58:41.775Z,1.10
2019-03-18T02:01:11.783Z,0.80
2019-03-18T02:03:41.617Z,1.10
2019-03-18T02:06:11.685Z,0.90
2019-03-18T02:08:41.566Z,1.00
2019-03-18T02:11:11.439Z,1.40
2019-03-18T02:13:41.386Z,1.03
2019-03-18T02:16:11.353Z,1.07
2019-03-18T02:18:44.150Z,1.20
2019-03-18T02:21:14.100Z,1.20
2019-03-18T02:23:43.929Z,1.00
2019-03-18T02:26:13.859Z,1.20
2019-03-18T02:28:43.680Z,1.10
2019-03-18T02:31:13.519Z,1.30
2019-03-18T02:33:43.463Z,1.50
2019-03-18T02:36:13.456Z,1.03
2019-03-18T02:38:43.386Z,1.20
2019-03-18T02:41:13.256Z,1.10
2019-03-18T02:43:43.204Z,1.20
2019-03-18T02:46:13.211Z,1.20
2019-03-18T02:48:43.064Z,1.20
2019-03-18T02:51:12.910Z,1.00
2019-03-18T02:53:42.771Z,1.20
2019-03-18T02:56:12.807Z,1.00
2019-03-18T02:58:42.812Z,1.50
2019-03-18T03:01:13.782Z,1.27
2019-03-18T03:03:43.707Z,1.20
2019-03-18T03:06:13.546Z,1.30
2019-03-18T03:08:43.385Z,1.50
2019-03-18T03:11:13.317Z,1.33
2019-03-18T03:13:43.286Z,1.00
2019-03-18T03:16:25.567Z,1.47
2019-03-18T03:18:44.808Z,1.43
2019-03-18T03:21:14.740Z,1.30
2019-03-18T03:23:44.593Z,1.30
2019-03-18T03:26:14.517Z,1.53
2019-03-18T03:28:44.382Z,1.17
2019-03-18T03:31:14.234Z,1.13
2019-03-18T03:33:44.067Z,1.20
2019-03-18T03:36:13.997Z,1.30
2019-03-18T03:38:43.923Z,1.00
2019-03-18T03:41:17.667Z,1.17
2019-03-18T03:43:45.557Z,1.10
2019-03-18T03:46:15.465Z,1.27
2019-03-18T03:48:45.321Z,1.20
2019-03-18T03:51:15.295Z,1.10
2019-03-18T03:53:45.477Z,1.20
2019-03-18T03:56:15.464Z,1.30
2019-03-18T03:58:45.579Z,1.40
2019-03-18T04:01:15.610Z,1.30
2019-03-18T04:03:45.612Z,1.30
2019-03-18T04:06:16.011Z,1.20
2019-03-18T04:08:46.100Z,1.20
2019-03-18T04:11:16.143Z,1.43
2019-03-18T04:13:46.022Z,1.40
2019-03-18T04:16:16.009Z,1.10
2019-03-18T04:18:46.043Z,1.20
2019-03-18T04:21:15.973Z,1.30
2019-03-18T04:23:45.877Z,1.30
2019-03-18T04:26:15.756Z,1.30
2019-03-18T04:28:46.681Z,1.30
2019-03-18T04:31:16.609Z,1.30
2019-03-18T04:33:46.526Z,1.33
2019-03-18T04:36:16.359Z,1.10
2019-03-18T04:38:46.305Z,1.40
2019-03-18T04:41:16.157Z,1.13
2019-03-18T04:43:46.156Z,1.40
2019-03-18T04:46:16.058Z,1.17
2019-03-18T04:48:46.103Z,1.27
2019-03-18T04:51:15.950Z,1.60
2019-03-18T04:53:45.974Z,1.30
2019-03-18T04:56:15.886Z,1.30
2019-03-18T04:58:45.803Z,1.30
2019-03-18T05:01:15.780Z,1.30
2019-03-18T05:03:45.723Z,1.20
2019-03-18T05:06:15.590Z,1.20
2019-03-18T05:08:45.582Z,1.03
2019-03-18T05:11:15.512Z,1.40
2019-03-18T05:13:45.449Z,1.30
2019-03-18T05:16:15.480Z,1.43
2019-03-18T05:18:45.331Z,1.40
2019-03-18T05:21:16.334Z,1.27
2019-03-18T05:23:46.164Z,1.20
2019-03-18T05:26:15.993Z,1.33
2019-03-18T05:28:45.931Z,1.30
2019-03-18T05:31:15.936Z,1.27
2019-03-18T05:33:45.802Z,1.20
2019-03-18T05:36:15.611Z,1.30
2019-03-18T05:38:46.609Z,1.23
2019-03-18T05:41:16.581Z,1.47
2019-03-18T05:43:46.498Z,1.40
2019-03-18T05:46:16.328Z,1.17
2019-03-18T05:48:46.265Z,1.40
2019-03-18T05:51:16.263Z,1.50
2019-03-18T05:53:46.150Z,1.60
2019-03-18T05:56:15.976Z,1.57
2019-03-18T05:58:45.853Z,1.50
2019-03-18T06:01:15.726Z,1.43
2019-03-18T06:03:45.639Z,1.30
2019-03-18T06:06:15.611Z,1.20
2019-03-18T06:08:45.517Z,1.30
2019-03-18T06:11:15.458Z,1.60
2019-03-18T06:13:45.529Z,1.40
2019-03-18T06:16:15.483Z,1.20
2019-03-18T06:18:46.376Z,1.67
2019-03-18T06:21:16.357Z,1.27
2019-03-18T06:23:46.164Z,1.30
2019-03-18T06:26:16.103Z,1.27
2019-03-18T06:28:45.931Z,1.40
2019-03-18T06:31:15.887Z,1.30
2019-03-18T06:33:45.824Z,1.47
2019-03-18T06:36:15.914Z,1.50
2019-03-18T06:38:46.016Z,1.30
2019-03-18T06:41:15.887Z,1.42
2019-03-18T06:43:45.793Z,1.20
2019-03-18T06:46:15.768Z,1.33
2019-03-18T06:48:45.595Z,1.30
2019-03-18T06:51:15.582Z,1.37
2019-03-18T06:53:49.794Z,1.10
2019-03-18T06:56:20.254Z,1.57
2019-03-18T06:58:50.518Z,1.50
2019-03-18T07:01:20.352Z,1.20
2019-03-18T07:03:50.373Z,1.40
2019-03-18T07:06:20.298Z,1.33
2019-03-18T07:08:50.159Z,1.33
2019-03-18T07:11:20.038Z,1.20
2019-03-18T07:13:49.906Z,1.20
2019-03-18T07:16:19.741Z,1.07
2019-03-18T07:18:51.396Z,1.17
2019-03-18T07:21:21.390Z,1.20
2019-03-18T07:23:51.247Z,1.20
2019-03-18T07:26:21.177Z,1.40
2019-03-18T07:28:51.027Z,1.50
2019-03-18T07:31:20.863Z,1.67
2019-03-18T07:33:50.828Z,1.67
2019-03-18T07:36:20.766Z,1.60
2019-03-18T07:38:50.655Z,1.50
2019-03-18T07:41:20.600Z,1.17
2019-03-18T07:43:50.633Z,1.10
2019-03-18T07:46:21.475Z,1.50
2019-03-18T07:48:51.440Z,1.40
2019-03-18T07:51:21.358Z,1.63
2019-03-18T07:53:51.193Z,1.40
2019-03-18T07:56:22.201Z,1.60
2019-03-18T07:58:52.062Z,1.93
2019-03-18T08:01:22.008Z,1.40
2019-03-18T08:03:51.917Z,1.73
2019-03-18T08:06:21.863Z,1.80
2019-03-18T08:08:53.455Z,1.60
2019-03-18T08:11:23.577Z,1.60
2019-03-18T08:13:54.535Z,1.50
2019-03-18T08:16:24.429Z,1.90
2019-03-18T08:18:54.378Z,1.80
2019-03-18T08:21:24.270Z,1.37
2019-03-18T08:23:54.230Z,1.50
2019-03-18T08:26:27.102Z,1.63
2019-03-18T08:28:55.859Z,1.70
2019-03-18T08:31:25.870Z,1.80
2019-03-18T08:33:55.911Z,1.83
2019-03-18T08:36:25.868Z,1.50
2019-03-18T08:38:55.752Z,1.80
2019-03-18T08:41:25.677Z,1.47
2019-03-18T08:43:55.643Z,1.70
2019-03-18T08:46:25.556Z,1.70
2019-03-18T08:48:56.203Z,1.80
2019-03-18T08:51:27.288Z,1.67
2019-03-18T08:53:57.323Z,1.67
2019-03-18T08:56:29.571Z,1.80
2019-03-18T08:58:58.848Z,1.73
2019-03-18T09:01:28.821Z,1.97
2019-03-18T09:03:58.693Z,1.93
2019-03-18T09:06:30.455Z,1.90
2019-03-18T09:09:00.447Z,1.87
2019-03-18T09:11:30.463Z,2.00
2019-03-18T09:14:00.399Z,1.63
2019-03-18T09:16:30.381Z,1.90
2019-03-18T09:19:08.726Z,2.00
2019-03-18T09:21:32.256Z,2.00
2019-03-18T09:24:02.121Z,1.90
2019-03-18T09:26:32.109Z,1.80
2019-03-18T09:29:02.041Z,1.90
2019-03-18T09:31:31.940Z,1.90
2019-03-18T09:34:01.809Z,1.60
2019-03-18T09:36:32.818Z,2.03
2019-03-18T09:39:02.746Z,2.10
2019-03-18T09:41:32.571Z,1.70
2019-03-18T09:44:02.539Z,1.77
2019-03-18T09:46:32.407Z,1.60
2019-03-18T09:49:02.320Z,1.60
2019-03-18T09:51:32.169Z,1.63
2019-03-18T09:54:02.084Z,1.87
2019-03-18T09:56:31.951Z,1.60
2019-03-18T09:59:01.876Z,1.63
2019-03-18T10:01:31.717Z,1.20
2019-03-18T10:04:01.625Z,1.60
2019-03-18T10:06:33.344Z,1.43
2019-03-18T10:09:04.923Z,1.20
2019-03-18T10:11:34.818Z,1.27
2019-03-18T10:14:04.802Z,1.23
2019-03-18T10:16:34.645Z,1.20
2019-03-18T10:19:04.622Z,1.20
2019-03-18T10:21:34.475Z,1.27
2019-03-18T10:24:04.515Z,1.23
2019-03-18T10:26:34.429Z,1.57
2019-03-18T10:29:04.367Z,1.33
2019-03-18T10:31:34.302Z,1.37
2019-03-18T10:34:04.302Z,1.60
2019-03-18T10:36:34.320Z,1.30
2019-03-18T10:39:05.842Z,1.60
2019-03-18T10:41:35.820Z,1.37
2019-03-18T10:44:05.795Z,1.30
2019-03-18T10:46:35.798Z,1.50
2019-03-18T10:49:05.779Z,1.53
2019-03-18T10:51:35.625Z,1.73
2019-03-18T10:54:05.536Z,1.37
2019-03-18T10:56:35.535Z,1.13
2019-03-18T10:59:06.518Z,1.20
2019-03-18T11:01:36.414Z,1.40
2019-03-18T11:04:06.356Z,1.47
2019-03-18T11:06:36.317Z,1.33
2019-03-18T11:09:07.899Z,1.50
2019-03-18T11:11:37.735Z,1.10
2019-03-18T11:14:07.682Z,1.00
2019-03-18T11:16:37.584Z,1.20
2019-03-18T11:19:07.505Z,1.40
2019-03-18T11:21:37.432Z,1.27
2019-03-18T11:24:07.343Z,1.17
2019-03-18T11:26:37.172Z,1.37
2019-03-18T11:29:07.089Z,1.50
2019-03-18T11:31:37.006Z,1.27
2019-03-18T11:34:06.990Z,1.30
2019-03-18T11:36:36.996Z,1.20
2019-03-18T11:39:08.695Z,1.50
2019-03-18T11:41:38.915Z,1.70
2019-03-18T11:44:08.755Z,1.50
2019-03-18T11:46:40.597Z,1.40
2019-03-18T11:49:10.306Z,1.10
2019-03-18T11:51:40.225Z,1.40
2019-03-18T11:54:10.200Z,1.50
2019-03-18T11:56:40.244Z,1.30
2019-03-18T11:59:10.123Z,1.40
2019-03-18T12:01:40.026Z,1.40
2019-03-18T12:04:10.010Z,1.33
2019-03-18T12:06:39.973Z,1.70
2019-03-18T12:09:09.992Z,1.50
2019-03-18T12:11:39.973Z,1.40
2019-03-18T12:14:09.914Z,1.47
2019-03-18T12:16:39.768Z,1.23
2019-03-18T12:19:09.805Z,1.40
2019-03-18T12:21:39.635Z,1.63
2019-03-18T12:24:09.491Z,1.60
2019-03-18T12:26:39.474Z,1.43
2019-03-18T12:29:09.410Z,1.40
2019-03-18T12:31:39.353Z,1.90
2019-03-18T12:34:09.319Z,1.30
2019-03-18T12:36:39.323Z,1.40
2019-03-18T12:39:09.298Z,1.60
2019-03-18T12:41:39.215Z,1.50
2019-03-18T12:44:09.155Z,1.20
2019-03-18T12:46:39.159Z,1.67
2019-03-18T12:49:09.096Z,1.70
2019-03-18T12:51:38.944Z,1.30
2019-03-18T12:54:09.044Z,1.60
2019-03-18T12:56:38.891Z,1.27
2019-03-18T12:59:08.883Z,1.33
2019-03-18T13:01:38.833Z,1.50
2019-03-18T13:04:08.817Z,1.40
2019-03-18T13:06:38.850Z,1.60
2019-03-18T13:09:09.556Z,1.80
2019-03-18T13:11:39.566Z,1.30
2019-03-18T13:14:09.388Z,1.63
2019-03-18T13:16:39.281Z,2.60
2019-03-18T13:19:09.194Z,1.70
2019-03-18T13:21:39.161Z,2.00
2019-03-18T13:24:09.148Z,1.80
2019-03-18T13:26:39.003Z,1.90
2019-03-18T13:29:08.940Z,1.77
2019-03-18T13:31:38.893Z,1.77
2019-03-18T13:34:08.727Z,1.70
2019-03-18T13:36:38.731Z,1.80
2019-03-18T13:39:09.437Z,1.70
2019-03-18T13:41:39.420Z,1.70
2019-03-18T13:44:09.343Z,1.83
2019-03-18T13:46:39.324Z,1.97
2019-03-18T13:49:09.169Z,1.70
2019-03-18T13:51:39.084Z,1.63
2019-03-18T13:54:08.989Z,1.70
2019-03-18T13:56:38.838Z,1.67
2019-03-18T13:59:08.863Z,1.67
2019-03-18T14:01:38.697Z,1.60
2019-03-18T14:04:08.805Z,1.70
2019-03-18T14:06:38.722Z,1.67
2019-03-18T14:09:09.320Z,1.90
2019-03-18T14:11:39.240Z,2.20
2019-03-18T14:14:09.197Z,2.00
2019-03-18T14:16:39.124Z,1.80
2019-03-18T14:19:09.000Z,1.70
2019-03-18T14:21:38.845Z,1.57
2019-03-18T14:24:08.808Z,1.60
2019-03-18T14:26:38.707Z,1.23
2019-03-18T14:29:08.683Z,1.60
2019-03-18T14:31:38.594Z,1.10
2019-03-18T14:34:08.636Z,1.10
2019-03-18T14:36:38.553Z,1.23
2019-03-18T14:39:08.627Z,1.57
2019-03-18T14:41:38.476Z,1.40
2019-03-18T14:44:08.458Z,1.30
2019-03-18T14:46:46.206Z,1.40
2019-03-18T14:49:16.063Z,1.37
2019-03-18T14:51:46.343Z,1.40
2019-03-18T14:54:16.277Z,1.40
2019-03-18T14:56:46.223Z,1.30
2019-03-18T14:59:16.213Z,1.10
2019-03-18T15:01:46.068Z,1.67
2019-03-18T15:04:15.968Z,1.30
2019-03-18T15:06:46.133Z,1.30
2019-03-18T15:09:16.154Z,1.60
2019-03-18T15:11:46.264Z,1.33
2019-03-18T15:14:16.129Z,1.63
2019-03-18T15:16:46.131Z,1.40
2019-03-18T15:19:16.049Z,1.70
2019-03-18T15:21:57.611Z,1.60
2019-03-18T15:24:17.569Z,2.23
2019-03-18T15:26:47.536Z,1.53
2019-03-18T15:29:17.365Z,1.83
2019-03-18T15:31:47.281Z,1.50
2019-03-18T15:34:17.123Z,2.10
2019-03-18T15:36:47.062Z,1.83
2019-03-18T15:39:17.218Z,2.10
2019-03-18T15:41:47.103Z,1.83
2019-03-18T15:44:16.955Z,2.00
2019-03-18T15:46:46.891Z,2.00
2019-03-18T15:49:16.902Z,1.80
2019-03-18T15:51:46.855Z,1.70
2019-03-18T15:54:16.720Z,1.70
2019-03-18T15:56:46.645Z,1.50
2019-03-18T15:59:16.577Z,1.50
2019-03-18T16:01:46.549Z,1.40
2019-03-18T16:04:16.351Z,1.40
2019-03-18T16:06:46.258Z,1.47
2019-03-18T16:09:16.286Z,1.50
2019-03-18T16:11:46.190Z,1.47
2019-03-18T16:14:16.073Z,1.10
2019-03-18T16:16:46.038Z,1.57
2019-03-18T16:19:15.953Z,1.43
2019-03-18T16:21:45.814Z,1.43
2019-03-18T16:24:17.187Z,1.90
2019-03-18T16:26:47.071Z,1.70
2019-03-18T16:29:16.930Z,1.60
2019-03-18T16:31:46.761Z,1.60
2019-03-18T16:34:16.894Z,1.70
2019-03-18T16:36:46.811Z,1.53
2019-03-18T16:39:16.691Z,1.40
2019-03-18T16:41:46.621Z,1.40
2019-03-18T16:44:16.470Z,1.50
2019-03-18T16:46:46.412Z,1.60
2019-03-18T16:49:16.356Z,1.50
2019-03-18T16:51:46.656Z,1.90
2019-03-18T16:54:16.567Z,1.60
2019-03-18T16:56:46.415Z,1.70
2019-03-18T16:59:16.342Z,1.40
2019-03-18T17:01:46.202Z,1.23
2019-03-18T17:04:17.178Z,1.60
2019-03-18T17:06:47.247Z,1.50
2019-03-18T17:09:17.129Z,1.60
2019-03-18T17:11:47.005Z,1.50
2019-03-18T17:14:16.945Z,1.40
2019-03-18T17:16:46.819Z,1.53
2019-03-18T17:19:16.659Z,1.50
2019-03-18T17:21:46.591Z,1.43
2019-03-18T17:24:16.463Z,1.30
2019-03-18T17:26:46.458Z,1.60
2019-03-18T17:29:17.545Z,2.70
2019-03-18T17:31:47.387Z,1.60
2019-03-18T17:34:17.303Z,1.50
2019-03-18T17:36:47.266Z,1.67
2019-03-18T17:39:17.362Z,1.53
2019-03-18T17:41:47.269Z,1.80
2019-03-18T17:44:17.150Z,1.70
2019-03-18T17:46:47.171Z,1.77
2019-03-18T17:49:18.275Z,1.90
2019-03-18T17:51:48.195Z,2.20
2019-03-18T17:54:18.213Z,2.00
2019-03-18T17:56:48.024Z,2.10
2019-03-18T17:59:18.072Z,2.30
2019-03-18T18:01:47.881Z,2.00
2019-03-18T18:04:17.823Z,2.13
2019-03-18T18:06:47.791Z,2.20
2019-03-18T18:09:17.801Z,2.40
2019-03-18T18:11:47.688Z,2.17
2019-03-18T18:14:17.581Z,2.33
2019-03-18T18:16:47.444Z,2.70
2019-03-18T18:19:17.482Z,2.40
2019-03-18T18:21:47.411Z,2.37
2019-03-18T18:24:18.545Z,2.20
2019-03-18T18:26:48.471Z,2.47
2019-03-18T18:29:18.487Z,2.33
2019-03-18T18:31:48.389Z,2.17
2019-03-18T18:34:18.307Z,2.30
2019-03-18T18:36:48.301Z,2.20
2019-03-18T18:39:18.155Z,2.60
2019-03-18T18:41:48.057Z,2.80
2019-03-18T18:44:19.322Z,2.77
2019-03-18T18:46:49.545Z,2.70
2019-03-18T18:49:19.557Z,2.70
2019-03-18T18:51:49.522Z,2.70
2019-03-18T18:54:19.342Z,2.63
2019-03-18T18:56:49.398Z,2.60
2019-03-18T18:59:19.391Z,2.50
2019-03-18T19:01:49.711Z,2.27
2019-03-18T19:04:19.579Z,2.13
2019-03-18T19:06:49.489Z,2.20
2019-03-18T19:09:19.415Z,3.20
2019-03-18T19:11:49.336Z,2.70
2019-03-18T19:14:19.282Z,3.80
2019-03-18T19:16:49.121Z,3.27
2019-03-18T19:19:19.032Z,2.90
2019-03-18T19:21:48.958Z,2.90
2019-03-18T19:24:18.823Z,2.40
2019-03-18T19:26:48.853Z,2.73
2019-03-18T19:29:19.066Z,2.70
2019-03-18T19:31:49.062Z,2.47
2019-03-18T19:34:18.904Z,2.90
2019-03-18T19:36:48.850Z,2.77
2019-03-18T19:39:18.722Z,2.90
2019-03-18T19:41:48.653Z,3.23
2019-03-18T19:44:18.660Z,3.03
2019-03-18T19:46:48.553Z,3.17
2019-03-18T19:49:18.388Z,3.02
2019-03-18T19:51:48.267Z,2.90
2019-03-18T19:54:18.114Z,3.00
2019-03-18T19:56:48.047Z,2.80
2019-03-18T19:59:17.970Z,3.00
2019-03-18T20:01:47.896Z,2.77
2019-03-18T20:04:17.757Z,3.20
2019-03-18T20:06:48.789Z,3.00
2019-03-18T20:09:18.862Z,2.80
2019-03-18T20:11:48.850Z,3.03
2019-03-18T20:14:18.832Z,3.00
2019-03-18T20:16:48.799Z,2.87
2019-03-18T20:19:18.741Z,3.20
2019-03-18T20:21:48.814Z,3.00
2019-03-18T20:24:18.832Z,3.27
2019-03-18T20:26:49.783Z,2.90
2019-03-18T20:29:19.793Z,3.00
2019-03-18T20:31:49.771Z,3.10
2019-03-18T20:34:21.562Z,3.10
2019-03-18T20:36:51.627Z,5.47
2019-03-18T20:39:21.533Z,3.23
2019-03-18T20:41:51.476Z,2.93
2019-03-18T20:44:21.386Z,3.43
2019-03-18T20:46:52.482Z,3.10
2019-03-18T20:49:22.534Z,3.10
2019-03-18T20:51:52.650Z,3.07
2019-03-18T20:54:22.659Z,3.17
2019-03-18T20:56:52.481Z,3.07
2019-03-18T20:59:22.414Z,3.30
2019-03-18T21:01:52.412Z,3.63
2019-03-18T21:04:22.503Z,3.93
2019-03-18T21:06:52.481Z,4.87
2019-03-18T21:09:22.507Z,4.40
2019-03-18T21:11:52.371Z,4.17
2019-03-18T21:14:22.280Z,4.90
2019-03-18T21:16:52.232Z,3.73
2019-03-18T21:19:22.313Z,4.13
2019-03-18T21:21:52.448Z,3.97
2019-03-18T21:24:23.575Z,3.63
2019-03-18T21:26:53.924Z,4.10
2019-03-18T21:29:23.912Z,3.60
2019-03-18T21:31:53.967Z,3.77
2019-03-18T21:34:23.920Z,3.93
2019-03-18T21:36:53.907Z,3.43
2019-03-18T21:39:25.460Z,3.83
2019-03-18T21:41:55.360Z,4.30
2019-03-18T21:44:25.449Z,4.10
2019-03-18T21:46:55.474Z,4.17
2019-03-18T21:49:25.451Z,4.20
2019-03-18T21:51:55.389Z,3.90
2019-03-18T21:54:33.670Z,4.10
2019-03-18T21:56:56.873Z,4.13
2019-03-18T21:59:26.831Z,4.80
2019-03-18T22:01:56.817Z,4.95
2019-03-18T22:04:26.812Z,4.97
2019-03-18T22:06:57.043Z,4.50
2019-03-18T22:09:27.324Z,4.47
2019-03-18T22:11:57.474Z,4.73
2019-03-18T22:14:28.735Z,4.87
2019-03-18T22:16:58.783Z,4.80
2019-03-18T22:19:28.765Z,4.73
2019-03-18T22:21:58.588Z,3.70
2019-03-18T22:24:28.434Z,4.50
2019-03-18T22:26:58.413Z,4.23
2019-03-18T22:29:28.518Z,3.93
2019-03-18T22:31:58.451Z,3.83
2019-03-18T22:34:28.452Z,3.40
2019-03-18T22:36:58.590Z,3.50
2019-03-18T22:39:28.549Z,3.50
2019-03-18T22:41:58.537Z,3.50
2019-03-18T22:44:28.644Z,3.50
2019-03-18T22:46:58.519Z,3.53
2019-03-18T22:49:28.450Z,3.30
2019-03-18T22:51:58.383Z,3.50
2019-03-18T22:54:28.435Z,3.40
2019-03-18T22:57:00.408Z,3.30
2019-03-18T22:59:30.360Z,3.60
2019-03-18T23:02:00.363Z,3.07
2019-03-18T23:04:30.413Z,3.67
2019-03-18T23:07:00.318Z,3.47
2019-03-18T23:09:33.407Z,2.90
2019-03-18T23:12:03.325Z,3.20
2019-03-18T23:14:33.230Z,2.80
2019-03-18T23:17:03.208Z,2.77
2019-03-18T23:19:33.148Z,3.07
2019-03-18T23:22:03.175Z,2.77
2019-03-18T23:24:33.083Z,2.80
2019-03-18T23:27:03.099Z,3.00
2019-03-18T23:29:33.184Z,2.80
2019-03-18T23:32:03.079Z,2.30
2019-03-18T23:34:32.983Z,2.80
2019-03-18T23:37:03.158Z,2.80
2019-03-18T23:39:33.005Z,3.00
2019-03-18T23:42:02.918Z,3.07
2019-03-18T23:44:32.820Z,2.70
2019-03-18T23:47:02.826Z,2.77
2019-03-18T23:49:32.838Z,2.90
2019-03-18T23:52:03.013Z,2.63
2019-03-18T23:54:32.939Z,2.63
2019-03-18T23:57:03.117Z,3.13
2019-03-18T23:59:33.058Z,3.00
